createdAt,value
2016-12-31T00:00:14.185Z,0
2016-12-31T00:01:25.582Z,0
2016-12-31T00:02:37.033Z,0
2016-12-31T00:03:48.434Z,0
2016-12-31T00:04:59.836Z,0
2016-12-31T00:06:11.231Z,0
2016-12-31T00:07:22.631Z,0
2016-12-31T00:08:34.086Z,0
2016-12-31T00:09:45.481Z,0
2016-12-31T00:10:56.884Z,0
2016-12-31T00:12:08.285Z,0
2016-12-31T00:13:19.678Z,0
2016-12-31T00:14:31.124Z,0
2016-12-31T00:15:42.553Z,0
2016-12-31T00:16:53.952Z,0
2016-12-31T00:18:05.351Z,0
2016-12-31T00:19:16.755Z,0
2016-12-31T00:20:28.407Z,0
2016-12-31T00:21:39.804Z,0
2016-12-31T00:22:51.210Z,0
2016-12-31T00:24:02.604Z,0
2016-12-31T00:25:14.002Z,0
2016-12-31T00:26:25.452Z,0
2016-12-31T00:27:37.050Z,0
2016-12-31T00:28:48.450Z,0
2016-12-31T00:29:59.843Z,0
2016-12-31T00:31:11.239Z,0
2016-12-31T00:32:22.698Z,0
2016-12-31T00:33:34.098Z,0
2016-12-31T00:34:45.507Z,0
2016-12-31T00:35:56.915Z,0
2016-12-31T00:37:08.318Z,0
2016-12-31T00:38:19.968Z,0
2016-12-31T00:39:31.366Z,0
2016-12-31T00:40:42.765Z,0
2016-12-31T00:41:54.164Z,0
2016-12-31T00:43:05.561Z,0
2016-12-31T00:44:17.109Z,0
2016-12-31T00:45:28.505Z,0
2016-12-31T00:46:39.904Z,0
2016-12-31T00:47:51.300Z,0
2016-12-31T00:49:02.687Z,0
2016-12-31T00:50:14.130Z,0
2016-12-31T00:51:25.528Z,0
2016-12-31T00:52:36.932Z,0
2016-12-31T00:53:48.335Z,0
2016-12-31T00:54:59.736Z,0
2016-12-31T00:56:11.289Z,0
2016-12-31T00:57:22.690Z,0
2016-12-31T00:58:34.096Z,0
2016-12-31T00:59:45.494Z,0
2016-12-31T01:00:57.091Z,0
2016-12-31T01:02:08.736Z,0
2016-12-31T01:03:20.135Z,0
2016-12-31T01:04:31.535Z,0
2016-12-31T01:05:42.938Z,0
2016-12-31T01:06:54.368Z,0
2016-12-31T01:08:05.817Z,0
2016-12-31T01:09:17.410Z,0
2016-12-31T01:10:29.011Z,0
2016-12-31T01:11:40.414Z,0
2016-12-31T01:12:52.012Z,0
2016-12-31T01:14:03.515Z,0
2016-12-31T01:15:14.922Z,0
2016-12-31T01:16:26.521Z,0
2016-12-31T01:17:37.911Z,0
2016-12-31T01:18:49.307Z,0
2016-12-31T01:20:00.804Z,0
2016-12-31T01:21:12.401Z,0
2016-12-31T01:22:23.792Z,0
2016-12-31T01:23:35.390Z,0
2016-12-31T01:24:46.782Z,0
2016-12-31T01:25:58.428Z,0
2016-12-31T01:27:09.829Z,0
2016-12-31T01:28:21.439Z,0
2016-12-31T01:29:32.834Z,0
2016-12-31T01:30:44.236Z,0
2016-12-31T01:31:55.721Z,0
2016-12-31T01:33:07.124Z,0
2016-12-31T01:34:18.519Z,0
2016-12-31T01:35:29.921Z,0
2016-12-31T01:36:41.317Z,0
2016-12-31T01:37:52.763Z,0
2016-12-31T01:39:04.365Z,0
2016-12-31T01:40:15.768Z,0
2016-12-31T01:41:27.166Z,0
2016-12-31T01:42:38.563Z,0
2016-12-31T01:43:50.214Z,0
2016-12-31T01:45:01.611Z,0
2016-12-31T01:46:13.012Z,0
2016-12-31T01:47:24.410Z,0
2016-12-31T01:48:36.057Z,0
2016-12-31T01:49:47.453Z,0
2016-12-31T01:50:58.847Z,0
2016-12-31T01:52:10.243Z,0
2016-12-31T01:53:21.640Z,0
2016-12-31T01:54:33.091Z,0
2016-12-31T01:55:44.493Z,0
2016-12-31T01:56:56.101Z,0
2016-12-31T01:58:07.508Z,0
2016-12-31T01:59:19.102Z,0
2016-12-31T02:00:30.545Z,0
2016-12-31T02:01:41.941Z,0
2016-12-31T02:02:53.335Z,0
2016-12-31T02:04:04.731Z,0
2016-12-31T02:05:16.135Z,0
2016-12-31T02:06:27.587Z,0
2016-12-31T02:07:38.994Z,0
2016-12-31T02:08:50.395Z,0
2016-12-31T02:10:02.020Z,0
2016-12-31T02:11:13.420Z,0
2016-12-31T02:12:25.073Z,0
2016-12-31T02:13:36.466Z,0
2016-12-31T02:14:47.861Z,0
2016-12-31T02:15:59.255Z,0
2016-12-31T02:17:10.654Z,0
2016-12-31T02:18:22.096Z,0
2016-12-31T02:19:33.490Z,0
2016-12-31T02:20:44.888Z,0
2016-12-31T02:21:56.485Z,0
2016-12-31T02:23:08.086Z,0
2016-12-31T02:24:19.739Z,0
2016-12-31T02:25:31.140Z,0
2016-12-31T02:26:42.947Z,0
2016-12-31T02:27:54.349Z,0
2016-12-31T02:29:05.944Z,0
2016-12-31T02:30:17.390Z,0
2016-12-31T02:31:28.985Z,0
2016-12-31T02:32:40.386Z,0
2016-12-31T02:33:51.979Z,0
2016-12-31T02:35:03.373Z,0
2016-12-31T02:36:14.820Z,0
2016-12-31T02:37:26.244Z,0
2016-12-31T02:38:37.643Z,0
2016-12-31T02:39:49.043Z,0
2016-12-31T02:41:00.445Z,0
2016-12-31T02:42:11.891Z,0
2016-12-31T02:43:23.289Z,0
2016-12-31T02:44:34.891Z,0
2016-12-31T02:45:46.297Z,0
2016-12-31T02:46:57.693Z,0
2016-12-31T02:48:09.143Z,0
2016-12-31T02:49:20.547Z,0
2016-12-31T02:50:31.959Z,0
2016-12-31T02:51:43.359Z,0
2016-12-31T02:52:54.752Z,0
2016-12-31T02:54:06.198Z,0
2016-12-31T02:55:17.596Z,0
2016-12-31T02:56:28.995Z,0
2016-12-31T02:57:40.398Z,0
2016-12-31T02:58:51.803Z,0
2016-12-31T03:00:03.252Z,0
2016-12-31T03:01:14.660Z,0
2016-12-31T03:02:26.060Z,0
2016-12-31T03:03:37.455Z,0
2016-12-31T03:04:48.852Z,0
2016-12-31T03:06:00.304Z,0
2016-12-31T03:07:11.705Z,0
2016-12-31T03:08:23.100Z,0
2016-12-31T03:09:34.704Z,0
2016-12-31T03:10:46.134Z,0
2016-12-31T03:11:57.580Z,0
2016-12-31T03:13:08.974Z,0
2016-12-31T03:14:20.366Z,0
2016-12-31T03:15:31.772Z,0
2016-12-31T03:16:43.175Z,0
2016-12-31T03:17:54.819Z,0
2016-12-31T03:19:06.210Z,0
2016-12-31T03:20:17.603Z,0
2016-12-31T03:21:29.010Z,0
2016-12-31T03:22:40.405Z,0
2016-12-31T03:23:51.861Z,0
2016-12-31T03:25:03.255Z,0
2016-12-31T03:26:14.667Z,0
2016-12-31T03:27:26.061Z,0
2016-12-31T03:28:37.461Z,0
2016-12-31T03:29:48.913Z,0
2016-12-31T03:31:00.330Z,0
2016-12-31T03:32:11.736Z,0
2016-12-31T03:33:23.138Z,0
2016-12-31T03:34:34.750Z,0
2016-12-31T03:35:46.202Z,0
2016-12-31T03:36:57.599Z,0
2016-12-31T03:38:08.993Z,0
2016-12-31T03:39:20.796Z,0
2016-12-31T03:40:32.187Z,0
2016-12-31T03:41:43.636Z,0
2016-12-31T03:42:55.049Z,0
2016-12-31T03:44:06.449Z,0
2016-12-31T03:45:17.856Z,0
2016-12-31T03:46:29.251Z,0
2016-12-31T03:47:40.906Z,0
2016-12-31T03:48:52.304Z,0
2016-12-31T03:50:03.704Z,0
2016-12-31T03:51:15.105Z,0
2016-12-31T03:52:26.705Z,0
2016-12-31T03:53:38.155Z,0
2016-12-31T03:54:49.556Z,0
2016-12-31T03:56:00.955Z,0
2016-12-31T03:57:12.356Z,0
2016-12-31T03:58:23.769Z,0
2016-12-31T03:59:35.214Z,0
2016-12-31T04:00:46.612Z,0
2016-12-31T04:01:58.004Z,0
2016-12-31T04:03:09.406Z,0
2016-12-31T04:04:20.794Z,0
2016-12-31T04:05:32.245Z,0
2016-12-31T04:06:43.641Z,0
2016-12-31T04:07:55.046Z,0
2016-12-31T04:09:06.460Z,0
2016-12-31T04:10:17.857Z,0
2016-12-31T04:11:29.294Z,0
2016-12-31T04:12:40.727Z,0
2016-12-31T04:13:52.127Z,0
2016-12-31T04:15:03.519Z,0
2016-12-31T04:16:14.910Z,0
2016-12-31T04:17:26.565Z,0
2016-12-31T04:18:37.966Z,0
2016-12-31T04:19:49.369Z,0
2016-12-31T04:21:00.758Z,0
2016-12-31T04:22:12.362Z,0
2016-12-31T04:23:23.806Z,0
2016-12-31T04:24:35.201Z,0
2016-12-31T04:25:46.602Z,0
2016-12-31T04:26:58.001Z,0
2016-12-31T04:28:09.433Z,0
2016-12-31T04:29:20.882Z,0
2016-12-31T04:30:32.278Z,0
2016-12-31T04:31:43.667Z,0
2016-12-31T04:32:55.076Z,0
2016-12-31T04:34:06.479Z,0
2016-12-31T04:35:17.922Z,0
2016-12-31T04:36:29.317Z,0
2016-12-31T04:37:40.746Z,0
2016-12-31T04:38:52.141Z,0
2016-12-31T04:40:03.986Z,0
2016-12-31T04:41:15.431Z,0
2016-12-31T04:42:26.838Z,0
2016-12-31T04:43:38.236Z,0
2016-12-31T04:44:49.841Z,0
2016-12-31T04:46:01.238Z,0
2016-12-31T04:47:12.701Z,0
2016-12-31T04:48:24.123Z,0
2016-12-31T04:49:35.526Z,0
2016-12-31T04:50:46.923Z,0
2016-12-31T04:51:58.320Z,0
2016-12-31T04:53:09.769Z,0
2016-12-31T04:54:21.173Z,0
2016-12-31T04:55:32.570Z,0
2016-12-31T04:56:43.971Z,0
2016-12-31T04:57:55.374Z,0
2016-12-31T04:59:06.831Z,0
2016-12-31T05:00:18.232Z,0
2016-12-31T05:01:29.633Z,0
2016-12-31T05:02:41.025Z,0
2016-12-31T05:03:52.422Z,0
2016-12-31T05:05:03.878Z,0
2016-12-31T05:06:15.287Z,0
2016-12-31T05:07:26.691Z,0
2016-12-31T05:08:38.088Z,0
2016-12-31T05:09:49.506Z,0
2016-12-31T05:11:00.965Z,0
2016-12-31T05:12:12.374Z,0
2016-12-31T05:13:23.775Z,0
2016-12-31T05:14:35.171Z,0
2016-12-31T05:15:46.566Z,0
2016-12-31T05:16:58.020Z,0
2016-12-31T05:18:09.624Z,0
2016-12-31T05:19:21.040Z,0
2016-12-31T05:20:32.437Z,0
2016-12-31T05:21:43.833Z,0
2016-12-31T05:22:55.282Z,0
2016-12-31T05:24:06.677Z,0
2016-12-31T05:25:18.276Z,0
2016-12-31T05:26:29.678Z,0
2016-12-31T05:27:41.276Z,0
2016-12-31T05:28:52.732Z,0
2016-12-31T05:30:04.129Z,0
2016-12-31T05:31:15.533Z,0
2016-12-31T05:32:26.926Z,0
2016-12-31T05:33:38.535Z,0
2016-12-31T05:34:49.997Z,0
2016-12-31T05:36:01.591Z,0
2016-12-31T05:37:13.200Z,0
2016-12-31T05:38:24.604Z,0
2016-12-31T05:39:36.205Z,0
2016-12-31T05:40:47.860Z,0
2016-12-31T05:41:59.258Z,0
2016-12-31T05:43:10.664Z,0
2016-12-31T05:44:22.075Z,0
2016-12-31T05:45:33.484Z,0
2016-12-31T05:46:44.930Z,0
2016-12-31T05:47:56.528Z,0
2016-12-31T05:49:07.924Z,0
2016-12-31T05:50:19.322Z,0
2016-12-31T05:51:30.723Z,0
2016-12-31T05:52:42.169Z,0
2016-12-31T05:53:53.576Z,0
2016-12-31T05:55:04.971Z,0
2016-12-31T05:56:16.571Z,0
2016-12-31T05:57:27.971Z,0
2016-12-31T05:58:39.421Z,0
2016-12-31T05:59:51.023Z,0
2016-12-31T06:01:02.626Z,0
2016-12-31T06:02:14.026Z,0
2016-12-31T06:03:25.423Z,0
2016-12-31T06:04:36.874Z,0
2016-12-31T06:05:48.273Z,0
2016-12-31T06:06:59.674Z,0
2016-12-31T06:08:11.067Z,0
2016-12-31T06:09:22.456Z,0
2016-12-31T06:10:33.901Z,0
2016-12-31T06:11:45.302Z,0
2016-12-31T06:12:56.701Z,0
2016-12-31T06:14:08.097Z,0
2016-12-31T06:15:19.488Z,0
2016-12-31T06:16:30.939Z,0
2016-12-31T06:17:42.331Z,0
2016-12-31T06:18:53.727Z,0
2016-12-31T06:20:05.129Z,0
2016-12-31T06:21:16.525Z,0
2016-12-31T06:22:27.967Z,0
2016-12-31T06:23:39.371Z,0
2016-12-31T06:24:50.773Z,0
2016-12-31T06:26:02.167Z,0
2016-12-31T06:27:13.773Z,0
2016-12-31T06:28:25.216Z,0
2016-12-31T06:29:36.611Z,0
2016-12-31T06:30:48.011Z,0
2016-12-31T06:31:59.403Z,0
2016-12-31T06:33:10.798Z,0
2016-12-31T06:34:22.451Z,0
2016-12-31T06:35:33.857Z,0
2016-12-31T06:36:45.244Z,0
2016-12-31T06:37:56.853Z,0
2016-12-31T06:39:08.251Z,0
2016-12-31T06:40:19.904Z,0
2016-12-31T06:41:31.493Z,0
2016-12-31T06:42:43.092Z,0
2016-12-31T06:43:54.494Z,0
2016-12-31T06:45:05.894Z,0
2016-12-31T06:46:17.353Z,0
2016-12-31T06:47:28.746Z,0
2016-12-31T06:48:40.144Z,0
2016-12-31T06:49:51.549Z,0
2016-12-31T06:51:02.941Z,0
2016-12-31T06:52:14.394Z,0
2016-12-31T06:53:25.988Z,0
2016-12-31T06:54:37.387Z,0
2016-12-31T06:55:48.787Z,0
2016-12-31T06:57:00.387Z,0
2016-12-31T06:58:12.029Z,0
2016-12-31T06:59:23.419Z,0
2016-12-31T07:00:35.025Z,0
2016-12-31T07:01:46.414Z,4
2016-12-31T07:02:57.815Z,0
2016-12-31T07:04:09.261Z,4
2016-12-31T07:05:20.652Z,0
2016-12-31T07:06:32.060Z,4
2016-12-31T07:07:43.463Z,4
2016-12-31T07:08:55.065Z,4
2016-12-31T07:10:06.506Z,4
2016-12-31T07:11:18.107Z,4
2016-12-31T07:12:29.509Z,8
2016-12-31T07:13:40.913Z,8
2016-12-31T07:14:52.310Z,8
2016-12-31T07:16:03.779Z,12
2016-12-31T07:17:15.188Z,12
2016-12-31T07:18:26.584Z,16
2016-12-31T07:19:38.016Z,20
2016-12-31T07:20:49.419Z,20
2016-12-31T07:22:00.864Z,24
2016-12-31T07:23:12.260Z,24
2016-12-31T07:24:23.665Z,32
2016-12-31T07:25:35.059Z,32
2016-12-31T07:26:46.658Z,36
2016-12-31T07:27:58.121Z,40
2016-12-31T07:29:09.528Z,48
2016-12-31T07:30:20.926Z,52
2016-12-31T07:31:32.327Z,60
2016-12-31T07:32:43.724Z,64
2016-12-31T07:33:55.171Z,68
2016-12-31T07:35:06.768Z,72
2016-12-31T07:36:18.372Z,80
2016-12-31T07:37:29.775Z,92
2016-12-31T07:38:41.172Z,100
2016-12-31T07:39:52.624Z,100
2016-12-31T07:41:04.016Z,108
2016-12-31T07:42:15.408Z,120
2016-12-31T07:43:26.803Z,136
2016-12-31T07:44:38.407Z,148
2016-12-31T07:45:49.861Z,172
2016-12-31T07:47:01.263Z,184
2016-12-31T07:48:12.672Z,204
2016-12-31T07:49:24.073Z,216
2016-12-31T07:50:35.468Z,228
2016-12-31T07:51:47.121Z,232
2016-12-31T07:52:58.522Z,228
2016-12-31T07:54:09.924Z,240
2016-12-31T07:55:21.321Z,260
2016-12-31T07:56:32.929Z,264
2016-12-31T07:57:44.368Z,276
2016-12-31T07:58:55.970Z,276
2016-12-31T08:00:07.370Z,292
2016-12-31T08:01:18.788Z,292
2016-12-31T08:02:30.398Z,308
2016-12-31T08:03:41.898Z,324
2016-12-31T08:04:53.302Z,320
2016-12-31T08:06:04.898Z,332
2016-12-31T08:07:16.298Z,328
2016-12-31T08:08:27.699Z,340
2016-12-31T08:09:39.342Z,352
2016-12-31T08:10:50.744Z,368
2016-12-31T08:12:02.123Z,372
2016-12-31T08:13:13.523Z,412
2016-12-31T08:14:25.326Z,420
2016-12-31T08:15:36.776Z,412
2016-12-31T08:16:48.179Z,400
2016-12-31T08:17:59.572Z,464
2016-12-31T08:19:10.969Z,472
2016-12-31T08:20:22.567Z,516
2016-12-31T08:21:34.012Z,532
2016-12-31T08:22:45.615Z,544
2016-12-31T08:23:57.216Z,552
2016-12-31T08:25:08.613Z,556
2016-12-31T08:26:20.006Z,560
2016-12-31T08:27:31.457Z,580
2016-12-31T08:28:42.864Z,624
2016-12-31T08:29:54.263Z,656
2016-12-31T08:31:05.657Z,712
2016-12-31T08:32:17.051Z,728
2016-12-31T08:33:28.497Z,724
2016-12-31T08:34:39.892Z,684
2016-12-31T08:35:51.690Z,684
2016-12-31T08:37:03.095Z,688
2016-12-31T08:38:14.497Z,708
2016-12-31T08:39:25.950Z,688
2016-12-31T08:40:37.350Z,728
2016-12-31T08:41:48.753Z,696
2016-12-31T08:43:00.154Z,688
2016-12-31T08:44:11.552Z,752
2016-12-31T08:45:22.996Z,744
2016-12-31T08:46:34.600Z,760
2016-12-31T08:47:46.201Z,840
2016-12-31T08:48:57.598Z,836
2016-12-31T08:50:09.001Z,816
2016-12-31T08:51:20.450Z,800
2016-12-31T08:52:32.045Z,800
2016-12-31T08:53:43.447Z,812
2016-12-31T08:54:54.849Z,848
2016-12-31T08:56:06.238Z,872
2016-12-31T08:57:17.684Z,848
2016-12-31T08:58:29.092Z,960
2016-12-31T08:59:40.485Z,976
2016-12-31T09:00:51.882Z,940
2016-12-31T09:02:03.289Z,964
2016-12-31T09:03:14.732Z,1108
2016-12-31T09:04:26.130Z,1052
2016-12-31T09:05:37.532Z,1204
2016-12-31T09:06:48.927Z,1088
2016-12-31T09:08:00.325Z,1040
2016-12-31T09:09:11.976Z,1100
2016-12-31T09:10:23.575Z,1144
2016-12-31T09:11:34.979Z,1152
2016-12-31T09:12:46.586Z,1156
2016-12-31T09:13:57.996Z,1244
2016-12-31T09:15:09.667Z,1228
2016-12-31T09:16:21.056Z,1264
2016-12-31T09:17:32.455Z,1232
2016-12-31T09:18:44.063Z,1308
2016-12-31T09:19:55.458Z,1392
2016-12-31T09:21:07.112Z,1292
2016-12-31T09:22:18.716Z,1436
2016-12-31T09:23:30.111Z,1356
2016-12-31T09:24:41.500Z,1300
2016-12-31T09:25:52.900Z,1312
2016-12-31T09:27:04.347Z,1460
2016-12-31T09:28:15.754Z,1500
2016-12-31T09:29:27.151Z,1460
2016-12-31T09:30:38.561Z,1392
2016-12-31T09:31:49.955Z,1496
2016-12-31T09:33:01.404Z,1568
2016-12-31T09:34:12.805Z,1420
2016-12-31T09:35:24.409Z,1396
2016-12-31T09:36:35.810Z,1332
2016-12-31T09:37:47.202Z,1296
2016-12-31T09:38:58.647Z,1232
2016-12-31T09:40:10.057Z,1236
2016-12-31T09:41:21.450Z,1312
2016-12-31T09:42:32.857Z,1296
2016-12-31T09:43:44.254Z,1244
2016-12-31T09:44:55.711Z,1352
2016-12-31T09:46:07.111Z,1336
2016-12-31T09:47:18.514Z,1360
2016-12-31T09:48:30.118Z,1300
2016-12-31T09:49:41.525Z,1348
2016-12-31T09:50:52.979Z,1356
2016-12-31T09:52:04.374Z,1496
2016-12-31T09:53:15.779Z,1424
2016-12-31T09:54:27.177Z,1476
2016-12-31T09:55:38.573Z,1460
2016-12-31T09:56:50.029Z,1392
2016-12-31T09:58:01.423Z,1496
2016-12-31T09:59:12.829Z,1636
2016-12-31T10:00:24.422Z,1544
2016-12-31T10:01:36.016Z,1524
2016-12-31T10:02:47.470Z,1560
2016-12-31T10:03:58.868Z,1624
2016-12-31T10:05:10.271Z,1644
2016-12-31T10:06:21.683Z,1628
2016-12-31T10:07:33.088Z,1580
2016-12-31T10:08:44.539Z,1676
2016-12-31T10:09:55.934Z,1824
2016-12-31T10:11:07.544Z,1812
2016-12-31T10:12:18.946Z,1812
2016-12-31T10:13:30.345Z,1868
2016-12-31T10:14:41.802Z,1872
2016-12-31T10:15:53.226Z,1812
2016-12-31T10:17:04.630Z,1964
2016-12-31T10:18:16.029Z,2016
2016-12-31T10:19:27.438Z,1936
2016-12-31T10:20:38.836Z,1916
2016-12-31T10:21:50.240Z,1728
2016-12-31T10:23:01.629Z,1764
2016-12-31T10:24:13.026Z,1760
2016-12-31T10:25:24.467Z,1996
2016-12-31T10:26:35.860Z,2128
2016-12-31T10:27:47.262Z,2104
2016-12-31T10:28:58.650Z,1984
2016-12-31T10:30:10.083Z,2112
2016-12-31T10:31:21.542Z,2128
2016-12-31T10:32:33.145Z,2044
2016-12-31T10:33:44.543Z,2032
2016-12-31T10:34:56.345Z,2092
2016-12-31T10:36:07.751Z,2136
2016-12-31T10:37:19.199Z,2040
2016-12-31T10:38:30.603Z,2024
2016-12-31T10:39:41.999Z,1860
2016-12-31T10:40:53.599Z,1904
2016-12-31T10:42:05.008Z,1756
2016-12-31T10:43:16.448Z,1736
2016-12-31T10:44:28.046Z,1764
2016-12-31T10:45:39.450Z,1744
2016-12-31T10:46:50.852Z,1792
2016-12-31T10:48:02.247Z,1840
2016-12-31T10:49:13.695Z,1792
2016-12-31T10:50:25.099Z,1768
2016-12-31T10:51:36.505Z,1832
2016-12-31T10:52:48.110Z,1724
2016-12-31T10:53:59.509Z,1716
2016-12-31T10:55:11.161Z,1776
2016-12-31T10:56:22.565Z,1724
2016-12-31T10:57:33.977Z,1672
2016-12-31T10:58:45.386Z,1664
2016-12-31T10:59:57.211Z,1668
2016-12-31T11:01:08.663Z,1616
2016-12-31T11:02:20.068Z,1588
2016-12-31T11:03:31.478Z,1520
2016-12-31T11:04:42.878Z,1528
2016-12-31T11:05:54.283Z,1632
2016-12-31T11:07:05.726Z,1524
2016-12-31T11:08:17.121Z,1392
2016-12-31T11:09:28.528Z,1352
2016-12-31T11:10:40.165Z,1340
2016-12-31T11:11:51.764Z,1440
2016-12-31T11:13:03.217Z,1404
2016-12-31T11:14:14.613Z,1448
2016-12-31T11:15:26.023Z,1532
2016-12-31T11:16:37.415Z,1548
2016-12-31T11:17:48.841Z,1520
2016-12-31T11:19:00.290Z,1588
2016-12-31T11:20:11.690Z,1608
2016-12-31T11:21:23.086Z,1560
2016-12-31T11:22:34.703Z,1500
2016-12-31T11:23:46.108Z,1596
2016-12-31T11:24:57.561Z,1492
2016-12-31T11:26:08.962Z,1488
2016-12-31T11:27:20.367Z,1420
2016-12-31T11:28:31.767Z,1520
2016-12-31T11:29:43.198Z,1520
2016-12-31T11:30:54.856Z,1532
2016-12-31T11:32:06.254Z,1676
2016-12-31T11:33:17.657Z,1588
2016-12-31T11:34:29.453Z,1576
2016-12-31T11:35:40.854Z,1568
2016-12-31T11:36:52.310Z,1520
2016-12-31T11:38:03.708Z,1324
2016-12-31T11:39:15.113Z,1336
2016-12-31T11:40:26.512Z,1476
2016-12-31T11:41:37.908Z,1532
2016-12-31T11:42:49.357Z,1504
2016-12-31T11:44:00.760Z,1452
2016-12-31T11:45:12.153Z,1552
2016-12-31T11:46:23.553Z,1516
2016-12-31T11:47:35.147Z,1560
2016-12-31T11:48:46.594Z,1524
2016-12-31T11:49:57.997Z,1408
2016-12-31T11:51:09.404Z,1424
2016-12-31T11:52:21.215Z,1408
2016-12-31T11:53:32.817Z,1448
2016-12-31T11:54:44.468Z,1484
2016-12-31T11:55:55.870Z,1516
2016-12-31T11:57:07.467Z,1584
2016-12-31T11:58:19.074Z,1532
2016-12-31T11:59:30.472Z,1540
2016-12-31T12:00:41.923Z,1524
2016-12-31T12:01:53.326Z,1464
2016-12-31T12:03:04.727Z,1420
2016-12-31T12:04:16.124Z,1448
2016-12-31T12:05:27.523Z,1436
2016-12-31T12:06:39.179Z,1440
2016-12-31T12:07:50.579Z,1364
2016-12-31T12:09:01.978Z,1432
2016-12-31T12:10:13.374Z,1412
2016-12-31T12:11:24.966Z,1424
2016-12-31T12:12:36.416Z,1404
2016-12-31T12:13:47.813Z,1428
2016-12-31T12:14:59.240Z,1456
2016-12-31T12:16:10.844Z,1488
2016-12-31T12:17:22.268Z,1508
2016-12-31T12:18:33.727Z,1624
2016-12-31T12:19:45.126Z,1580
2016-12-31T12:20:56.530Z,1636
2016-12-31T12:22:07.933Z,1648
2016-12-31T12:23:19.336Z,1592
2016-12-31T12:24:30.791Z,1432
2016-12-31T12:25:42.198Z,1504
2016-12-31T12:26:53.803Z,1508
2016-12-31T12:28:05.205Z,1512
2016-12-31T12:29:16.608Z,1596
2016-12-31T12:30:28.061Z,1572
2016-12-31T12:31:39.472Z,1572
2016-12-31T12:32:50.877Z,1520
2016-12-31T12:34:02.682Z,1392
2016-12-31T12:35:14.284Z,1396
2016-12-31T12:36:25.735Z,1452
2016-12-31T12:37:37.139Z,1464
2016-12-31T12:38:48.552Z,1416
2016-12-31T12:39:59.949Z,1524
2016-12-31T12:41:11.352Z,1436
2016-12-31T12:42:23.005Z,1352
2016-12-31T12:43:34.422Z,1312
2016-12-31T12:44:45.818Z,1456
2016-12-31T12:45:57.226Z,1604
2016-12-31T12:47:08.827Z,1628
2016-12-31T12:48:20.273Z,1664
2016-12-31T12:49:31.669Z,1460
2016-12-31T12:50:43.066Z,1412
2016-12-31T12:51:54.710Z,1508
2016-12-31T12:53:06.113Z,1684
2016-12-31T12:54:17.595Z,1676
2016-12-31T12:55:28.996Z,1580
2016-12-31T12:56:40.398Z,1528
2016-12-31T12:57:51.806Z,1532
2016-12-31T12:59:03.209Z,1556
2016-12-31T13:00:14.663Z,1620
2016-12-31T13:01:26.070Z,1656
2016-12-31T13:02:37.469Z,1636
2016-12-31T13:03:49.066Z,1536
2016-12-31T13:05:00.469Z,1452
2016-12-31T13:06:11.918Z,1456
2016-12-31T13:07:23.319Z,1496
2016-12-31T13:08:34.722Z,1436
2016-12-31T13:09:46.125Z,1400
2016-12-31T13:10:57.926Z,1308
2016-12-31T13:12:09.380Z,1244
2016-12-31T13:13:20.970Z,1220
2016-12-31T13:14:32.573Z,1252
2016-12-31T13:15:44.171Z,1328
2016-12-31T13:16:55.568Z,1340
2016-12-31T13:18:07.017Z,1212
2016-12-31T13:19:18.415Z,1256
2016-12-31T13:20:30.019Z,1276
2016-12-31T13:21:41.432Z,1208
2016-12-31T13:22:52.835Z,1224
2016-12-31T13:24:04.287Z,1088
2016-12-31T13:25:15.688Z,1084
2016-12-31T13:26:27.089Z,1132
2016-12-31T13:27:38.490Z,1092
2016-12-31T13:28:49.910Z,1200
2016-12-31T13:30:01.562Z,1096
2016-12-31T13:31:12.966Z,1164
2016-12-31T13:32:24.366Z,1244
2016-12-31T13:33:35.791Z,1204
2016-12-31T13:34:47.194Z,1176
2016-12-31T13:35:58.641Z,1132
2016-12-31T13:37:10.049Z,1240
2016-12-31T13:38:21.645Z,1204
2016-12-31T13:39:33.048Z,1204
2016-12-31T13:40:44.486Z,1140
2016-12-31T13:41:55.942Z,1176
2016-12-31T13:43:07.339Z,1172
2016-12-31T13:44:18.735Z,1120
2016-12-31T13:45:30.161Z,1192
2016-12-31T13:46:41.555Z,1160
2016-12-31T13:47:53.153Z,1056
2016-12-31T13:49:04.581Z,1044
2016-12-31T13:50:15.977Z,1064
2016-12-31T13:51:27.581Z,1068
2016-12-31T13:52:39.186Z,1000
2016-12-31T13:53:50.635Z,996
2016-12-31T13:55:02.046Z,924
2016-12-31T13:56:13.438Z,924
2016-12-31T13:57:24.828Z,872
2016-12-31T13:58:36.224Z,900
2016-12-31T13:59:47.677Z,868
2016-12-31T14:00:59.083Z,852
2016-12-31T14:02:10.478Z,884
2016-12-31T14:03:21.877Z,884
2016-12-31T14:04:33.277Z,820
2016-12-31T14:05:44.725Z,780
2016-12-31T14:06:56.124Z,784
2016-12-31T14:08:07.558Z,740
2016-12-31T14:09:18.963Z,740
2016-12-31T14:10:30.570Z,736
2016-12-31T14:11:42.019Z,712
2016-12-31T14:12:53.421Z,716
2016-12-31T14:14:04.835Z,700
2016-12-31T14:15:16.242Z,684
2016-12-31T14:16:27.642Z,692
2016-12-31T14:17:39.097Z,656
2016-12-31T14:18:50.703Z,624
2016-12-31T14:20:02.107Z,616
2016-12-31T14:21:13.705Z,628
2016-12-31T14:22:25.308Z,620
2016-12-31T14:23:36.754Z,588
2016-12-31T14:24:48.161Z,608
2016-12-31T14:25:59.569Z,588
2016-12-31T14:27:10.975Z,568
2016-12-31T14:28:22.374Z,528
2016-12-31T14:29:33.849Z,556
2016-12-31T14:30:45.251Z,544
2016-12-31T14:31:56.659Z,520
2016-12-31T14:33:08.060Z,528
2016-12-31T14:34:19.467Z,516
2016-12-31T14:35:30.918Z,480
2016-12-31T14:36:42.314Z,464
2016-12-31T14:37:53.718Z,448
2016-12-31T14:39:05.122Z,440
2016-12-31T14:40:16.528Z,420
2016-12-31T14:41:28.179Z,392
2016-12-31T14:42:39.583Z,372
2016-12-31T14:43:51.190Z,356
2016-12-31T14:45:02.596Z,344
2016-12-31T14:46:14.003Z,340
2016-12-31T14:47:25.459Z,328
2016-12-31T14:48:36.855Z,312
2016-12-31T14:49:48.254Z,296
2016-12-31T14:50:59.656Z,276
2016-12-31T14:52:11.055Z,268
2016-12-31T14:53:22.507Z,256
2016-12-31T14:54:33.918Z,244
2016-12-31T14:55:45.321Z,236
2016-12-31T14:56:56.731Z,220
2016-12-31T14:58:08.137Z,208
2016-12-31T14:59:19.583Z,192
2016-12-31T15:00:31.183Z,180
2016-12-31T15:01:42.797Z,172
2016-12-31T15:02:54.205Z,164
2016-12-31T15:04:05.608Z,160
2016-12-31T15:05:17.061Z,152
2016-12-31T15:06:28.453Z,140
2016-12-31T15:07:39.847Z,136
2016-12-31T15:08:51.447Z,124
2016-12-31T15:10:02.854Z,112
2016-12-31T15:11:14.310Z,112
2016-12-31T15:12:25.707Z,108
2016-12-31T15:13:37.108Z,104
2016-12-31T15:14:48.521Z,100
2016-12-31T15:15:59.917Z,92
2016-12-31T15:17:11.363Z,84
2016-12-31T15:18:22.762Z,76
2016-12-31T15:19:34.362Z,72
2016-12-31T15:20:45.767Z,68
2016-12-31T15:21:57.368Z,64
2016-12-31T15:23:08.825Z,60
2016-12-31T15:24:20.226Z,56
2016-12-31T15:25:31.629Z,48
2016-12-31T15:26:43.035Z,48
2016-12-31T15:27:54.429Z,44
2016-12-31T15:29:05.903Z,40
2016-12-31T15:30:17.310Z,36
2016-12-31T15:31:28.718Z,36
2016-12-31T15:32:40.113Z,32
2016-12-31T15:33:51.518Z,28
2016-12-31T15:35:02.965Z,28
2016-12-31T15:36:14.394Z,24
2016-12-31T15:37:25.799Z,20
2016-12-31T15:38:37.203Z,20
2016-12-31T15:39:48.605Z,16
2016-12-31T15:41:00.055Z,12
2016-12-31T15:42:11.449Z,12
2016-12-31T15:43:22.849Z,8
2016-12-31T15:44:34.243Z,8
2016-12-31T15:45:45.645Z,8
2016-12-31T15:46:57.099Z,8
2016-12-31T15:48:08.699Z,4
2016-12-31T15:49:20.108Z,4
2016-12-31T15:50:31.710Z,4
2016-12-31T15:51:43.319Z,4
2016-12-31T15:52:54.975Z,0
2016-12-31T15:54:06.414Z,4
2016-12-31T15:55:18.007Z,0
2016-12-31T15:56:29.613Z,0
2016-12-31T15:57:41.211Z,4
2016-12-31T15:58:52.668Z,4
2016-12-31T16:00:04.063Z,0
2016-12-31T16:01:15.452Z,0
2016-12-31T16:02:27.049Z,0
2016-12-31T16:03:38.456Z,0
2016-12-31T16:04:49.899Z,0
2016-12-31T16:06:01.498Z,0
2016-12-31T16:07:13.101Z,0
2016-12-31T16:08:24.506Z,0
2016-12-31T16:09:35.914Z,0
2016-12-31T16:10:47.365Z,0
2016-12-31T16:11:58.965Z,0
2016-12-31T16:13:10.356Z,0
2016-12-31T16:14:21.758Z,0
2016-12-31T16:15:33.161Z,0
2016-12-31T16:16:44.611Z,0
2016-12-31T16:17:56.013Z,0
2016-12-31T16:19:07.412Z,0
2016-12-31T16:20:19.022Z,0
2016-12-31T16:21:30.622Z,0
2016-12-31T16:22:42.080Z,0
2016-12-31T16:23:53.485Z,0
2016-12-31T16:25:04.893Z,0
2016-12-31T16:26:16.294Z,0
2016-12-31T16:27:27.689Z,0
2016-12-31T16:28:39.143Z,0
2016-12-31T16:29:50.546Z,0
2016-12-31T16:31:02.093Z,0
2016-12-31T16:32:13.489Z,0
2016-12-31T16:33:24.879Z,0
2016-12-31T16:34:36.528Z,0
2016-12-31T16:35:47.933Z,0
2016-12-31T16:36:59.333Z,0
2016-12-31T16:38:10.729Z,0
2016-12-31T16:39:22.135Z,0
2016-12-31T16:40:33.587Z,0
2016-12-31T16:41:45.187Z,0
2016-12-31T16:42:56.615Z,0
2016-12-31T16:44:08.217Z,0
2016-12-31T16:45:19.623Z,0
2016-12-31T16:46:31.077Z,0
2016-12-31T16:47:43.615Z,0
2016-12-31T16:48:55.586Z,0
2016-12-31T16:50:07.016Z,0